createdAt,value
2022-09-01T00:01:53.102Z,93426.91
2022-09-01T00:04:25.856Z,93436.50
2022-09-01T00:06:54.739Z,93434.59
2022-09-01T00:09:23.361Z,93430.34
2022-09-01T00:11:53.354Z,93434.81
2022-09-01T00:14:30.732Z,93435.66
2022-09-01T00:17:04.174Z,93424.75
2022-09-01T00:19:33.336Z,93436.66
2022-09-01T00:22:00.398Z,93428.13
2022-09-01T00:24:28.269Z,93413.84
2022-09-01T00:26:56.069Z,93421.25
2022-09-01T00:29:24.695Z,93415.22
2022-09-01T00:31:51.690Z,93415.66
2022-09-01T00:34:18.441Z,93421.47
2022-09-01T00:36:45.134Z,93410.84
2022-09-01T00:39:13.757Z,93406.34
2022-09-01T00:41:43.740Z,93419.41
2022-09-01T00:44:14.383Z,93418.16
2022-09-01T00:46:47.771Z,93406.59
2022-09-01T00:49:19.967Z,93416.88
2022-09-01T00:51:49.112Z,93411.38
2022-09-01T00:54:24.304Z,93388.97
2022-09-01T00:56:53.054Z,93425.31
2022-09-01T00:59:26.495Z,93398.59
2022-09-01T01:01:55.159Z,93422.41
2022-09-01T01:04:23.198Z,93421.56
2022-09-01T01:07:01.693Z,93418.31
2022-09-01T01:09:33.071Z,93407.59
2022-09-01T01:12:00.652Z,93428.81
2022-09-01T01:14:32.240Z,93429.44
2022-09-01T01:17:01.078Z,93427.94
2022-09-01T01:19:55.468Z,93432.19
2022-09-01T01:22:52.790Z,93412.53
2022-09-01T01:25:22.315Z,93421.47
2022-09-01T01:27:49.406Z,93412.13
2022-09-01T01:30:18.990Z,93408.28
2022-09-01T01:32:47.602Z,93424.47
2022-09-01T01:35:16.922Z,93416.66
2022-09-01T01:37:46.479Z,93423.25
2022-09-01T01:40:18.944Z,93427.34
2022-09-01T01:42:48.015Z,93428.34
2022-09-01T01:45:18.118Z,93426.88
2022-09-01T01:47:53.102Z,93425.84
2022-09-01T01:50:26.302Z,93421.91
2022-09-01T01:52:58.206Z,93428.69
2022-09-01T01:55:28.634Z,93417.03
2022-09-01T01:57:56.256Z,93426.78
2022-09-01T02:00:30.110Z,93433.94
2022-09-01T02:02:58.736Z,93433.66
2022-09-01T02:05:36.322Z,93411.75
2022-09-01T02:08:07.679Z,93396.53
2022-09-01T02:10:40.566Z,93426.97
2022-09-01T02:13:08.175Z,93420.81
2022-09-01T02:15:43.675Z,93420.53
2022-09-01T02:18:16.463Z,93416.47
2022-09-01T02:20:44.649Z,93423.31
2022-09-01T02:23:12.312Z,93423.34
2022-09-01T02:26:05.257Z,93411.75
2022-09-01T02:28:34.883Z,93421.34
2022-09-01T02:31:03.946Z,93422.19
2022-09-01T02:33:32.443Z,93430.41
2022-09-01T02:36:02.480Z,93423.06
2022-09-01T02:38:29.800Z,93416.72
2022-09-01T02:41:02.074Z,93423.06
2022-09-01T02:43:29.814Z,93423.88
2022-09-01T02:45:59.676Z,93430.81
2022-09-01T02:48:34.102Z,93426.50
2022-09-01T02:51:04.367Z,93429.59
2022-09-01T02:53:34.193Z,93419.75
2022-09-01T02:56:02.454Z,93432.44
2022-09-01T02:58:32.957Z,93427.53
2022-09-01T03:01:00.411Z,93408.81
2022-09-01T03:03:29.675Z,93429.84
2022-09-01T03:05:56.398Z,93425.56
2022-09-01T03:08:24.467Z,93423.06
2022-09-01T03:10:53.929Z,93415.09
2022-09-01T03:13:27.322Z,93413.88
2022-09-01T03:15:53.941Z,93414.28
2022-09-01T03:18:21.250Z,93416.50
2022-09-01T03:20:50.948Z,93414.91
2022-09-01T03:23:19.334Z,93390.28
2022-09-01T03:25:47.727Z,93411.06
2022-09-01T03:28:15.527Z,93412.13
2022-09-01T03:30:49.758Z,93415.97
2022-09-01T03:33:19.034Z,93411.06
2022-09-01T03:35:46.503Z,93421.94
2022-09-01T03:38:24.289Z,93415.34
2022-09-01T03:41:02.002Z,93407.41
2022-09-01T03:43:36.113Z,93412.31
2022-09-01T03:46:03.349Z,93418.03
2022-09-01T03:48:32.195Z,93416.34
2022-09-01T03:51:03.169Z,93416.00
2022-09-01T03:53:36.657Z,93417.03
2022-09-01T03:56:04.454Z,93424.97
2022-09-01T03:58:31.782Z,93427.00
2022-09-01T04:01:02.862Z,93415.16
2022-09-01T04:03:32.134Z,93422.34
2022-09-01T04:06:00.001Z,93411.91
2022-09-01T04:08:32.799Z,93417.25
2022-09-01T04:11:05.142Z,93415.00
2022-09-01T04:13:36.251Z,93409.69
2022-09-01T04:16:10.416Z,93410.09
2022-09-01T04:18:39.966Z,93407.44
2022-09-01T04:21:08.065Z,93381.13
2022-09-01T04:23:36.977Z,93383.16
2022-09-01T04:26:08.929Z,93408.06
2022-09-01T04:28:39.190Z,93403.56
2022-09-01T04:31:09.170Z,93412.31
2022-09-01T04:33:39.759Z,93388.28
2022-09-01T04:36:14.236Z,93411.53
2022-09-01T04:38:40.806Z,93410.91
2022-09-01T04:41:09.375Z,93418.84
2022-09-01T04:43:36.286Z,93412.56
2022-09-01T04:46:03.328Z,93411.31
2022-09-01T04:48:31.692Z,93415.81
2022-09-01T04:50:58.630Z,93391.72
2022-09-01T04:53:27.602Z,93418.28
2022-09-01T04:55:55.334Z,93398.44
2022-09-01T04:58:22.334Z,93414.34
2022-09-01T05:00:52.237Z,93394.78
2022-09-01T05:03:23.419Z,93409.69
2022-09-01T05:05:50.518Z,93411.31
2022-09-01T05:08:23.678Z,93405.81
2022-09-01T05:10:55.449Z,93416.00
2022-09-01T05:13:23.511Z,93408.88
2022-09-01T05:16:02.484Z,93422.75
2022-09-01T05:18:29.494Z,93413.78
2022-09-01T05:20:57.458Z,93421.91
2022-09-01T05:23:26.417Z,93412.72
2022-09-01T05:25:54.833Z,93399.47
2022-09-01T05:28:25.193Z,93412.94
2022-09-01T05:30:54.264Z,93416.22
2022-09-01T05:33:22.074Z,93417.84
2022-09-01T05:35:55.512Z,93427.63
2022-09-01T05:38:24.131Z,93428.22
2022-09-01T05:41:08.578Z,93429.16
2022-09-01T05:43:36.971Z,93403.31
2022-09-01T05:46:08.530Z,93427.34
2022-09-01T05:48:39.714Z,93422.88
2022-09-01T05:51:22.365Z,93429.78
2022-09-01T05:53:58.883Z,93401.53
2022-09-01T05:56:26.574Z,93424.78
2022-09-01T06:01:45.672Z,93402.84
2022-09-01T06:04:16.026Z,93406.72
2022-09-01T06:07:06.179Z,93421.69
2022-09-01T06:09:33.510Z,93394.44
2022-09-01T06:12:02.757Z,93425.19
2022-09-01T06:14:29.414Z,93420.53
2022-09-01T06:16:56.330Z,93424.06
2022-09-01T06:19:23.122Z,93425.97
2022-09-01T06:21:49.957Z,93397.53
2022-09-01T06:24:18.012Z,93420.53
2022-09-01T06:26:46.446Z,93424.97
2022-09-01T06:29:15.626Z,93417.13
2022-09-01T06:31:51.741Z,93426.56
2022-09-01T06:34:19.810Z,93402.03
2022-09-01T06:36:49.544Z,93420.97
2022-09-01T06:39:22.111Z,93417.13
2022-09-01T06:41:52.577Z,93408.97
2022-09-01T06:44:22.898Z,93394.72
2022-09-01T06:46:53.129Z,93401.06
2022-09-01T06:49:21.491Z,93407.34
2022-09-01T06:51:49.590Z,93394.13
2022-09-01T06:54:19.093Z,93383.22
2022-09-01T06:56:51.750Z,93409.81
2022-09-01T06:59:20.885Z,93409.66
2022-09-01T07:01:49.022Z,93406.94
2022-09-01T07:04:21.396Z,93410.53
2022-09-01T07:07:00.243Z,93419.13
2022-09-01T07:09:38.982Z,93411.03
2022-09-01T07:12:27.755Z,93410.31
2022-09-01T07:17:43.090Z,93419.31
2022-09-01T07:20:27.185Z,93417.25
2022-09-01T07:23:04.470Z,93434.41
2022-09-01T07:26:00.325Z,93427.44
2022-09-01T07:28:36.146Z,93422.25
2022-09-01T07:33:55.765Z,93417.69
2022-09-01T07:45:27.367Z,93424.09
2022-09-01T07:47:55.558Z,93432.59
2022-09-01T07:50:39.712Z,93429.25
2022-09-01T07:53:09.931Z,93427.16
2022-09-01T07:55:41.215Z,93428.44
2022-09-01T07:58:08.516Z,93430.53
2022-09-01T08:00:35.246Z,93432.19
2022-09-01T08:03:01.984Z,93427.84
2022-09-01T08:05:28.879Z,93422.34
2022-09-01T08:07:55.637Z,93422.91
2022-09-01T08:10:22.441Z,93398.03
2022-09-01T08:12:56.288Z,93418.34
2022-09-01T08:15:41.386Z,93415.31
2022-09-01T08:18:14.380Z,93413.72
2022-09-01T08:20:45.406Z,93398.72
2022-09-01T08:23:14.787Z,93406.66
2022-09-01T08:25:42.727Z,93414.97
2022-09-01T08:28:10.112Z,93380.50
2022-09-01T08:30:40.229Z,93381.16
2022-09-01T08:33:11.123Z,93402.88
2022-09-01T08:35:39.923Z,93396.81
2022-09-01T08:38:06.926Z,93395.16
2022-09-01T08:40:34.396Z,93397.34
2022-09-01T08:43:14.600Z,93396.00
2022-09-01T08:45:57.871Z,93377.97
2022-09-01T08:49:23.559Z,93391.75
2022-09-01T08:51:38.284Z,93401.69
2022-09-01T08:54:15.687Z,93397.00
2022-09-01T08:56:47.305Z,93404.81
2022-09-01T08:59:15.854Z,93400.47
2022-09-01T09:02:02.534Z,93409.59
2022-09-01T09:04:51.022Z,93398.53
2022-09-01T09:08:10.323Z,93404.03
2022-09-01T09:11:00.089Z,93402.44
2022-09-01T09:13:50.079Z,93401.28
2022-09-01T09:16:21.717Z,93391.50
2022-09-01T09:19:00.908Z,93392.03
2022-09-01T09:21:35.440Z,93409.59
2022-09-01T09:24:47.055Z,93404.34
2022-09-01T09:27:42.301Z,93401.91
2022-09-01T09:30:12.791Z,93394.28
2022-09-01T09:35:45.163Z,93385.31
2022-09-01T09:38:24.325Z,93385.00
2022-09-01T09:41:19.870Z,93381.75
2022-09-01T09:43:59.391Z,93374.06
2022-09-01T09:46:28.096Z,93379.19
2022-09-01T09:49:09.172Z,93351.56
2022-09-01T09:51:37.878Z,93368.56
2022-09-01T09:54:25.565Z,93363.34
2022-09-01T09:57:22.501Z,93365.22
2022-09-01T10:00:06.482Z,93365.72
2022-09-01T10:02:38.940Z,93358.13
2022-09-01T10:05:24.952Z,93355.94
2022-09-01T10:07:52.872Z,93358.22
2022-09-01T10:10:57.834Z,93351.97
2022-09-01T10:13:29.027Z,93357.13
2022-09-01T10:15:59.704Z,93351.13
2022-09-01T10:18:35.292Z,93345.50
2022-09-01T10:21:08.447Z,93356.19
2022-09-01T10:23:37.710Z,93350.53
2022-09-01T10:26:14.690Z,93348.13
2022-09-01T10:29:12.179Z,93351.22
2022-09-01T10:31:41.083Z,93350.13
2022-09-01T10:34:13.393Z,93332.72
2022-09-01T10:36:42.703Z,93340.25
2022-09-01T10:39:22.204Z,93336.09
2022-09-01T10:41:59.791Z,93334.66
2022-09-01T10:44:34.097Z,93332.84
2022-09-01T10:47:13.599Z,93331.97
2022-09-01T10:49:47.184Z,93326.13
2022-09-01T10:52:43.248Z,93325.22
2022-09-01T10:55:26.871Z,93309.94
2022-09-01T10:59:30.279Z,93316.72
2022-09-01T11:03:53.366Z,93307.94
2022-09-01T11:10:11.825Z,93310.63
2022-09-01T11:13:22.883Z,93313.28
2022-09-01T11:15:50.393Z,93311.72
2022-09-01T11:18:29.407Z,93312.56
2022-09-01T11:21:15.083Z,93314.25
2022-09-01T11:23:41.714Z,93309.81
2022-09-01T11:26:33.038Z,93312.28
2022-09-01T11:29:01.187Z,93296.69
2022-09-01T11:31:38.223Z,93300.78
2022-09-01T11:34:13.093Z,93316.97
2022-09-01T11:36:49.205Z,93311.19
2022-09-01T11:39:26.729Z,93314.59
2022-09-01T11:42:03.504Z,93293.56
2022-09-01T11:44:37.093Z,93308.53
2022-09-01T11:47:13.520Z,93304.16
2022-09-01T11:50:02.177Z,93305.31
2022-09-01T11:52:32.520Z,93296.47
2022-09-01T11:54:59.459Z,93302.25
2022-09-01T11:57:38.180Z,93301.22
2022-09-01T12:00:11.115Z,93300.00
2022-09-01T12:02:45.465Z,93303.84
2022-09-01T12:05:35.177Z,93300.53
2022-09-01T12:08:05.470Z,93300.50
2022-09-01T12:10:40.252Z,93275.53
2022-09-01T12:13:10.674Z,93290.78
2022-09-01T12:16:07.019Z,93291.38
2022-09-01T12:18:37.226Z,93291.97
2022-09-01T12:21:07.766Z,93292.75
2022-09-01T12:23:40.301Z,93290.97
2022-09-01T12:26:10.414Z,93300.84
2022-09-01T12:28:41.210Z,93284.84
2022-09-01T12:31:14.660Z,93294.59
2022-09-01T12:33:43.622Z,93297.41
2022-09-01T12:36:28.953Z,93287.44
2022-09-01T12:39:17.369Z,93289.66
2022-09-01T12:41:48.520Z,93288.03
2022-09-01T12:44:29.984Z,93295.88
2022-09-01T12:47:07.910Z,93288.91
2022-09-01T12:49:50.840Z,93291.38
2022-09-01T12:52:25.882Z,93272.50
2022-09-01T12:55:07.929Z,93269.22
2022-09-01T12:57:45.158Z,93267.34
2022-09-01T13:00:12.490Z,93265.31
2022-09-01T13:02:45.253Z,93272.94
2022-09-01T13:05:32.759Z,93271.84
2022-09-01T13:08:04.967Z,93260.91
2022-09-01T13:10:38.627Z,93267.34
2022-09-01T13:13:07.362Z,93273.13
2022-09-01T13:15:35.938Z,93274.72
2022-09-01T13:18:03.381Z,93253.75
2022-09-01T13:20:30.770Z,93269.38
2022-09-01T13:22:57.495Z,93270.53
2022-09-01T13:25:24.758Z,93276.72
2022-09-01T13:27:54.721Z,93264.16
2022-09-01T13:30:25.013Z,93263.78
2022-09-01T13:35:38.957Z,93267.03
2022-09-01T13:38:05.651Z,93264.94
2022-09-01T13:40:32.350Z,93255.09
2022-09-01T13:42:59.270Z,93231.75
2022-09-01T13:45:26.082Z,93258.41
2022-09-01T13:53:28.810Z,93250.06
2022-09-01T13:58:22.295Z,93251.75
2022-09-01T14:00:49.069Z,93242.63
2022-09-01T14:03:19.851Z,93231.03
2022-09-01T14:05:49.707Z,93239.06
2022-09-01T14:08:20.806Z,93237.03
2022-09-01T14:10:50.851Z,93246.19
2022-09-01T14:13:21.239Z,93252.19
2022-09-01T14:15:49.116Z,93250.13
2022-09-01T14:18:17.135Z,93243.06
2022-09-01T14:20:46.973Z,93251.03
2022-09-01T14:23:15.093Z,93232.75
2022-09-01T14:25:51.964Z,93196.19
2022-09-01T14:28:20.984Z,93240.75
2022-09-01T14:33:16.680Z,93231.50
2022-09-01T14:35:47.202Z,93240.94
2022-09-01T14:38:14.888Z,93242.78
2022-09-01T14:40:43.370Z,93235.13
2022-09-01T14:43:14.131Z,93238.38
2022-09-01T14:45:45.819Z,93245.03
2022-09-01T14:48:14.862Z,93229.75
2022-09-01T14:50:44.178Z,93237.75
2022-09-01T14:53:12.279Z,93226.91
2022-09-01T14:55:39.017Z,93235.22
2022-09-01T14:58:05.790Z,93225.50
2022-09-01T15:00:35.103Z,93233.47
2022-09-01T15:03:01.949Z,93241.81
2022-09-01T15:05:28.680Z,93245.91
2022-09-01T15:07:55.377Z,93249.13
2022-09-01T15:10:25.786Z,93249.38
2022-09-01T15:12:57.777Z,93249.31
2022-09-01T15:15:26.097Z,93244.94
2022-09-01T15:17:53.286Z,93236.06
2022-09-01T15:20:38.685Z,93227.59
2022-09-01T15:23:06.551Z,93238.06
2022-09-01T15:25:34.061Z,93229.75
2022-09-01T15:28:01.298Z,93213.25
2022-09-01T15:30:28.444Z,93219.56
2022-09-01T15:32:55.451Z,93230.16
2022-09-01T15:35:22.904Z,93227.75
2022-09-01T15:37:51.688Z,93231.59
2022-09-01T15:40:19.768Z,93223.91
2022-09-01T15:42:46.665Z,93220.91
2022-09-01T15:45:17.884Z,93225.38
2022-09-01T15:47:45.823Z,93221.25
2022-09-01T15:50:20.942Z,93229.16
2022-09-01T15:52:54.866Z,93221.69
2022-09-01T15:55:40.803Z,93219.63
2022-09-01T15:58:08.371Z,93219.56
2022-09-01T16:00:35.389Z,93226.47
2022-09-01T16:03:02.725Z,93218.69
2022-09-01T16:05:30.794Z,93228.69
2022-09-01T16:07:58.833Z,93234.94
2022-09-01T16:10:25.595Z,93244.63
2022-09-01T16:12:52.589Z,93238.66
2022-09-01T16:15:22.240Z,93233.84
2022-09-01T16:18:01.377Z,93252.72
2022-09-01T16:20:38.633Z,93251.41
2022-09-01T16:23:20.700Z,93249.53
2022-09-01T16:25:48.157Z,93245.44
2022-09-01T16:28:38.118Z,93243.59
2022-09-01T16:31:12.286Z,93241.13
2022-09-01T16:33:49.770Z,93245.16
2022-09-01T16:36:49.119Z,93246.25
2022-09-01T16:39:40.441Z,93250.03
2022-09-01T16:42:18.523Z,93236.50
2022-09-01T16:44:51.346Z,93251.31
2022-09-01T16:48:00.295Z,93255.91
2022-09-01T16:50:38.712Z,93256.34
2022-09-01T16:53:35.786Z,93193.44
2022-09-01T16:56:25.448Z,93258.78
2022-09-01T16:59:03.323Z,93251.38
2022-09-01T17:01:52.902Z,93225.91
2022-09-01T17:04:37.082Z,93261.28
2022-09-01T17:07:32.219Z,93260.66
2022-09-01T17:10:34.990Z,93235.94
2022-09-01T17:13:17.017Z,93255.56
2022-09-01T17:15:49.415Z,93255.53
2022-09-01T17:18:34.486Z,93260.25
2022-09-01T17:21:13.978Z,93241.72
2022-09-01T17:24:19.349Z,93261.06
2022-09-01T17:26:50.709Z,93261.59
2022-09-01T17:29:25.943Z,93266.88
2022-09-01T17:32:13.929Z,93266.03
2022-09-01T17:34:59.666Z,93263.47
2022-09-01T17:37:51.634Z,93248.91
2022-09-01T17:40:33.242Z,93273.59
2022-09-01T17:43:06.153Z,93274.28
2022-09-01T17:45:37.202Z,93269.19
2022-09-01T17:48:18.116Z,93265.16
2022-09-01T17:51:06.452Z,93274.09
2022-09-01T17:53:43.357Z,93275.34
2022-09-01T17:56:28.934Z,93284.72
2022-09-01T17:59:14.342Z,93285.41
2022-09-01T18:02:05.830Z,93289.63
2022-09-01T18:04:52.532Z,93293.44
2022-09-01T18:07:43.634Z,93288.91
2022-09-01T18:10:14.944Z,93281.63
2022-09-01T18:12:44.020Z,93292.38
2022-09-01T18:15:19.729Z,93291.00
2022-09-01T18:18:14.618Z,93298.22
2022-09-01T18:20:46.752Z,93302.34
2022-09-01T18:23:18.794Z,93306.97
2022-09-01T18:25:57.618Z,93310.94
2022-09-01T18:28:24.276Z,93306.09
2022-09-01T18:31:00.904Z,93309.47
2022-09-01T18:33:35.475Z,93308.41
2022-09-01T18:36:35.575Z,93310.13
2022-09-01T18:39:12.895Z,93308.88
2022-09-01T18:42:26.891Z,93320.97
2022-09-01T18:44:53.909Z,93323.41
2022-09-01T18:47:32.478Z,93329.94
2022-09-01T18:50:08.209Z,93333.84
2022-09-01T18:52:47.681Z,93327.78
2022-09-01T18:55:50.498Z,93303.06
2022-09-01T18:58:43.074Z,93330.72
2022-09-01T19:01:29.123Z,93314.81
2022-09-01T19:04:18.799Z,93333.84
2022-09-01T19:06:59.879Z,93344.94
2022-09-01T19:09:32.090Z,93337.47
2022-09-01T19:12:14.917Z,93336.59
2022-09-01T19:15:10.126Z,93336.91
2022-09-01T19:18:04.093Z,93333.66
2022-09-01T19:20:52.283Z,93338.56
2022-09-01T19:23:25.153Z,93313.22
2022-09-01T19:25:58.645Z,93329.66
2022-09-01T19:28:31.956Z,93334.53
2022-09-01T19:31:23.817Z,93335.19
2022-09-01T19:33:59.406Z,93336.38
2022-09-01T19:36:36.403Z,93336.50
2022-09-01T19:39:06.824Z,93313.91
2022-09-01T19:41:43.331Z,93333.47
2022-09-01T19:44:34.053Z,93336.47
2022-09-01T19:47:07.797Z,93330.94
2022-09-01T19:49:56.781Z,93336.06
2022-09-01T19:52:39.978Z,93337.19
2022-09-01T19:55:11.485Z,93331.31
2022-09-01T19:57:50.370Z,93334.66
2022-09-01T20:01:01.368Z,93326.16
2022-09-01T20:03:42.796Z,93344.59
2022-09-01T20:06:11.978Z,93340.75
2022-09-01T20:08:54.905Z,93333.41
2022-09-01T20:11:44.901Z,93333.59
2022-09-01T20:14:27.400Z,93317.75
2022-09-01T20:17:01.007Z,93331.69
2022-09-01T20:19:41.234Z,93325.41
2022-09-01T20:22:45.875Z,93333.84
2022-09-01T20:25:22.402Z,93311.13
2022-09-01T20:28:12.674Z,93332.00
2022-09-01T20:30:55.231Z,93327.13
2022-09-01T20:33:30.957Z,93326.97
2022-09-01T20:36:08.829Z,93326.81
2022-09-01T20:39:19.154Z,93337.09
2022-09-01T20:42:04.646Z,93333.22
2022-09-01T20:44:57.277Z,93333.63
2022-09-01T20:47:27.213Z,93332.41
2022-09-01T20:49:54.195Z,93325.16
2022-09-01T20:52:56.210Z,93332.16
2022-09-01T20:56:04.422Z,93335.72
2022-09-01T20:58:37.351Z,93333.03
2022-09-01T21:01:16.830Z,93333.63
2022-09-01T21:03:48.333Z,93329.25
2022-09-01T21:06:43.522Z,93334.22
2022-09-01T21:09:18.938Z,93331.69
2022-09-01T21:11:57.565Z,93329.97
2022-09-01T21:14:37.135Z,93335.28
2022-09-01T21:17:17.547Z,93331.16
2022-09-01T21:19:53.881Z,93331.28
2022-09-01T21:22:22.424Z,93335.84
2022-09-01T21:24:49.418Z,93320.38
2022-09-01T21:27:22.547Z,93339.09
2022-09-01T21:29:52.642Z,93332.25
2022-09-01T21:32:19.758Z,93341.09
2022-09-01T21:34:47.516Z,93338.69
2022-09-01T21:37:14.615Z,93327.69
2022-09-01T21:39:41.370Z,93337.56
2022-09-01T21:42:10.752Z,93313.13
2022-09-01T21:44:38.718Z,93333.78
2022-09-01T21:47:05.679Z,93328.00
2022-09-01T21:49:33.359Z,93326.94
2022-09-01T21:52:00.551Z,93313.72
2022-09-01T21:54:27.204Z,93328.94
2022-09-01T21:56:54.181Z,93305.47
2022-09-01T21:59:21.011Z,93305.25
2022-09-01T22:01:48.592Z,93329.91
2022-09-01T22:04:15.380Z,93324.34
2022-09-01T22:06:42.363Z,93317.25
2022-09-01T22:09:20.315Z,93314.13
2022-09-01T22:11:49.857Z,93314.66
2022-09-01T22:14:16.645Z,93317.31
2022-09-01T22:16:43.360Z,93312.03
2022-09-01T22:19:10.043Z,93280.41
2022-09-01T22:21:37.807Z,93314.56
2022-09-01T22:24:05.810Z,93299.03
2022-09-01T22:26:33.761Z,93322.94
2022-09-01T22:29:02.625Z,93315.31
2022-09-01T22:31:31.843Z,93319.47
2022-09-01T22:33:58.769Z,93317.41
2022-09-01T22:36:32.107Z,93302.72
2022-09-01T22:38:59.798Z,93311.34
2022-09-01T22:41:28.657Z,93311.34
2022-09-01T22:43:56.779Z,93308.88
2022-09-01T22:46:24.727Z,93307.59
2022-09-01T22:48:51.562Z,93310.94
2022-09-01T22:51:19.030Z,93310.06
2022-09-01T22:53:46.810Z,93278.31
2022-09-01T22:56:28.046Z,93316.25
2022-09-01T22:59:01.230Z,93313.97
2022-09-01T23:01:31.623Z,93314.78
2022-09-01T23:04:01.901Z,93315.59
2022-09-01T23:06:29.906Z,93318.38
2022-09-01T23:08:58.031Z,93312.34
2022-09-01T23:11:26.323Z,93307.28
2022-09-01T23:13:53.974Z,93317.16
2022-09-01T23:16:22.688Z,93301.69
2022-09-01T23:18:51.115Z,93315.75
2022-09-01T23:21:21.145Z,93317.72
2022-09-01T23:23:48.096Z,93319.91
2022-09-01T23:26:22.393Z,93314.22
2022-09-01T23:28:49.617Z,93321.78
2022-09-01T23:31:20.229Z,93315.59
2022-09-01T23:33:48.769Z,93307.78
2022-09-01T23:36:18.696Z,93303.78
2022-09-01T23:38:47.007Z,93309.91
2022-09-01T23:41:23.041Z,93317.94
2022-09-01T23:43:51.114Z,93322.66
2022-09-01T23:46:30.056Z,93298.00
2022-09-01T23:48:57.085Z,93325.34
2022-09-01T23:51:24.885Z,93327.16
2022-09-01T23:53:52.126Z,93302.31
2022-09-01T23:56:22.331Z,93313.72
2022-09-01T23:58:49.378Z,93315.09
